createdAt,value
2022-10-14T00:02:11.220Z,9.37
2022-10-14T00:04:38.806Z,9.40
2022-10-14T00:07:06.324Z,9.30
2022-10-14T00:09:33.865Z,9.33
2022-10-14T00:12:01.467Z,10.00
2022-10-14T00:14:29.022Z,12.60
2022-10-14T00:16:56.550Z,10.33
2022-10-14T00:19:24.111Z,11.33
2022-10-14T00:21:51.645Z,10.33
2022-10-14T00:24:19.949Z,10.37
2022-10-14T00:26:47.512Z,10.37
2022-10-14T00:29:15.069Z,11.03
2022-10-14T00:31:42.591Z,10.40
2022-10-14T00:34:10.909Z,10.40
2022-10-14T00:36:38.460Z,10.67
2022-10-14T00:39:05.985Z,10.80
2022-10-14T00:41:34.336Z,10.93
2022-10-14T00:44:07.948Z,11.07
2022-10-14T00:46:35.500Z,14.07
2022-10-14T00:49:03.065Z,11.67
2022-10-14T00:51:30.618Z,11.73
2022-10-14T00:53:58.164Z,11.60
2022-10-14T00:56:25.787Z,14.18
2022-10-14T00:58:53.286Z,12.63
2022-10-14T01:01:20.818Z,14.93
2022-10-14T01:03:48.381Z,12.47
2022-10-14T01:06:30.626Z,12.27
2022-10-14T01:08:58.200Z,11.90
2022-10-14T01:11:32.056Z,14.77
2022-10-14T01:14:04.958Z,12.20
2022-10-14T01:16:44.024Z,12.83
2022-10-14T01:19:42.661Z,11.77
2022-10-14T01:22:12.863Z,12.63
2022-10-14T01:24:49.446Z,11.30
2022-10-14T01:27:38.545Z,12.37
2022-10-14T01:30:17.648Z,11.83
2022-10-14T01:32:48.098Z,11.83
2022-10-14T01:35:33.790Z,11.53
2022-10-14T01:38:22.710Z,12.50
2022-10-14T01:40:59.145Z,11.67
2022-10-14T01:43:27.439Z,13.03
2022-10-14T01:45:54.983Z,12.13
2022-10-14T01:48:22.557Z,12.17
2022-10-14T01:50:50.102Z,13.07
2022-10-14T01:53:27.227Z,12.70
2022-10-14T01:55:54.782Z,11.97
2022-10-14T01:58:22.316Z,12.70
2022-10-14T02:00:49.890Z,13.10
2022-10-14T02:03:17.424Z,12.00
2022-10-14T02:05:54.314Z,11.53
2022-10-14T02:08:36.962Z,11.63
2022-10-14T02:11:16.421Z,11.63
2022-10-14T02:13:55.839Z,11.70
2022-10-14T02:16:26.092Z,15.77
2022-10-14T02:19:03.315Z,12.57
2022-10-14T02:21:37.072Z,12.33
2022-10-14T02:24:07.762Z,11.67
2022-10-14T02:26:35.305Z,12.53
2022-10-14T02:29:02.857Z,11.87
2022-10-14T02:31:30.391Z,11.90
2022-10-14T02:33:58.753Z,12.50
2022-10-14T02:36:26.347Z,11.93
2022-10-14T02:38:54.640Z,12.40
2022-10-14T02:41:22.165Z,12.20
2022-10-14T02:43:49.729Z,11.70
2022-10-14T02:46:18.042Z,12.13
2022-10-14T02:48:45.567Z,12.33
2022-10-14T02:51:13.920Z,12.53
2022-10-14T02:53:41.474Z,12.90
2022-10-14T02:56:09.027Z,13.43
2022-10-14T02:58:36.622Z,14.00
2022-10-14T03:01:04.924Z,18.05
2022-10-14T03:03:32.452Z,15.27
2022-10-14T03:06:00.800Z,15.87
2022-10-14T03:08:28.349Z,15.77
2022-10-14T03:10:55.870Z,15.03
2022-10-14T03:13:23.454Z,17.10
2022-10-14T03:15:50.999Z,16.73
2022-10-14T03:18:18.523Z,18.07
2022-10-14T03:20:46.856Z,16.83
2022-10-14T03:23:14.412Z,17.70
2022-10-14T03:25:41.966Z,16.43
2022-10-14T03:28:09.510Z,18.37
2022-10-14T03:30:37.066Z,19.43
2022-10-14T03:33:04.651Z,17.90
2022-10-14T03:35:32.232Z,19.57
2022-10-14T03:37:59.787Z,19.27
2022-10-14T03:40:27.311Z,23.40
2022-10-14T03:42:54.867Z,18.73
2022-10-14T03:45:22.400Z,18.03
2022-10-14T03:47:50.695Z,19.53
2022-10-14T03:50:18.290Z,18.53
2022-10-14T03:52:47.113Z,18.37
2022-10-14T03:55:13.367Z,19.07
2022-10-14T03:57:40.941Z,17.77
2022-10-14T04:00:08.594Z,17.50
2022-10-14T04:02:36.155Z,17.53
2022-10-14T04:05:04.480Z,17.73
2022-10-14T04:07:32.024Z,17.37
2022-10-14T04:09:59.560Z,17.73
2022-10-14T04:12:27.154Z,16.87
2022-10-14T04:14:54.690Z,17.47
2022-10-14T04:17:22.234Z,18.20
2022-10-14T04:19:49.787Z,16.83
2022-10-14T04:22:17.322Z,17.53
2022-10-14T04:24:45.635Z,17.13
2022-10-14T04:27:13.220Z,17.17
2022-10-14T04:29:40.764Z,17.47
2022-10-14T04:32:08.288Z,17.03
2022-10-14T04:34:35.876Z,16.70
2022-10-14T04:37:03.407Z,16.60
2022-10-14T04:39:30.962Z,16.80
2022-10-14T04:41:59.296Z,17.03
2022-10-14T04:44:26.839Z,16.30
2022-10-14T04:46:54.363Z,16.93
2022-10-14T04:49:21.937Z,17.13
2022-10-14T04:51:49.482Z,17.23
2022-10-14T04:54:17.017Z,18.13
2022-10-14T04:56:45.359Z,18.13
2022-10-14T04:59:12.913Z,23.60
2022-10-14T05:01:40.509Z,18.27
2022-10-14T05:04:08.044Z,18.87
2022-10-14T05:06:35.587Z,18.53
2022-10-14T05:09:03.111Z,17.87
2022-10-14T05:11:30.686Z,23.10
2022-10-14T05:13:58.221Z,19.47
2022-10-14T05:16:25.765Z,18.67
2022-10-14T05:18:54.127Z,19.23
2022-10-14T05:21:21.681Z,19.60
2022-10-14T05:23:49.226Z,19.10
2022-10-14T05:26:16.800Z,20.33
2022-10-14T05:28:44.346Z,19.77
2022-10-14T05:31:11.869Z,20.00
2022-10-14T05:33:39.444Z,20.77
2022-10-14T05:36:07.030Z,21.47
2022-10-14T05:38:34.573Z,21.00
2022-10-14T05:41:02.157Z,21.57
2022-10-14T05:43:32.726Z,22.00
2022-10-14T05:45:57.226Z,21.60
2022-10-14T05:48:24.829Z,22.00
2022-10-14T05:50:52.355Z,22.73
2022-10-14T05:53:19.908Z,22.87
2022-10-14T05:55:47.485Z,24.30
2022-10-14T05:58:15.007Z,23.37
2022-10-14T06:00:42.543Z,25.33
2022-10-14T06:03:10.937Z,23.67
2022-10-14T06:05:38.458Z,24.53
2022-10-14T06:08:06.013Z,28.67
2022-10-14T06:10:33.598Z,25.57
2022-10-14T06:13:01.132Z,23.40
2022-10-14T06:15:28.677Z,22.10
2022-10-14T06:17:57.146Z,29.65
2022-10-14T06:20:24.691Z,24.20
2022-10-14T06:22:52.245Z,22.93
2022-10-14T06:25:19.830Z,22.47
2022-10-14T06:27:47.368Z,21.27
2022-10-14T06:30:14.899Z,21.47
2022-10-14T06:32:43.408Z,21.27
2022-10-14T06:35:10.945Z,20.97
2022-10-14T06:37:39.253Z,22.17
2022-10-14T06:40:06.891Z,20.63
2022-10-14T06:42:35.191Z,19.40
2022-10-14T06:45:02.727Z,19.40
2022-10-14T06:47:30.311Z,18.73
2022-10-14T06:49:57.867Z,19.47
2022-10-14T06:52:25.400Z,18.33
2022-10-14T06:54:53.742Z,19.93
2022-10-14T06:57:21.286Z,20.07
2022-10-14T06:59:48.840Z,24.17
2022-10-14T07:02:16.416Z,19.87
2022-10-14T07:04:43.940Z,18.67
2022-10-14T07:07:11.464Z,18.10
2022-10-14T07:09:39.807Z,17.80
2022-10-14T07:12:07.343Z,17.30
2022-10-14T07:14:34.867Z,18.23
2022-10-14T07:17:02.451Z,16.50
2022-10-14T07:19:29.995Z,16.60
2022-10-14T07:21:57.530Z,18.23
2022-10-14T07:24:25.879Z,16.70
2022-10-14T07:26:53.426Z,16.00
2022-10-14T07:29:20.942Z,15.70
2022-10-14T07:31:48.535Z,14.63
2022-10-14T07:34:16.080Z,14.37
2022-10-14T07:36:43.605Z,14.17
2022-10-14T07:39:11.958Z,15.67
2022-10-14T07:41:39.492Z,14.67
2022-10-14T07:44:07.016Z,18.30
2022-10-14T07:46:34.620Z,14.37
2022-10-14T07:49:17.209Z,14.53
2022-10-14T07:51:44.793Z,12.93
2022-10-14T07:54:12.329Z,12.93
2022-10-14T07:56:39.873Z,12.63
2022-10-14T07:59:07.437Z,11.10
2022-10-14T08:01:35.050Z,12.50
2022-10-14T08:04:02.537Z,11.20
2022-10-14T08:06:30.115Z,11.00
2022-10-14T08:08:57.655Z,11.10
2022-10-14T08:11:27.967Z,10.87
2022-10-14T08:13:56.338Z,11.47
2022-10-14T08:16:27.585Z,10.80
2022-10-14T08:18:55.878Z,12.27
2022-10-14T08:21:23.502Z,10.20
2022-10-14T08:23:51.027Z,9.93
2022-10-14T08:26:30.150Z,9.30
2022-10-14T08:28:57.712Z,8.03
2022-10-14T08:31:25.979Z,7.93
2022-10-14T08:33:53.569Z,8.17
2022-10-14T08:36:21.088Z,7.00
2022-10-14T08:38:48.611Z,7.47
2022-10-14T08:41:30.994Z,7.60
2022-10-14T08:44:13.702Z,7.00
2022-10-14T08:46:51.055Z,9.52
2022-10-14T08:49:20.401Z,7.20
2022-10-14T08:51:47.927Z,7.10
2022-10-14T08:54:15.508Z,6.80
2022-10-14T08:56:43.067Z,6.30
2022-10-14T08:59:16.291Z,6.67
2022-10-14T09:01:52.549Z,6.60
2022-10-14T09:04:20.183Z,6.13
2022-10-14T09:06:47.607Z,7.27
2022-10-14T09:09:23.648Z,7.53
2022-10-14T09:11:54.660Z,7.07
2022-10-14T09:14:22.197Z,7.10
2022-10-14T09:16:51.855Z,6.33
2022-10-14T09:19:23.507Z,5.73
2022-10-14T09:21:53.239Z,7.03
2022-10-14T09:24:19.394Z,6.03
2022-10-14T09:26:49.493Z,5.90
2022-10-14T09:29:23.463Z,5.37
2022-10-14T09:31:51.026Z,5.60
2022-10-14T09:34:20.359Z,4.93
2022-10-14T09:36:46.898Z,5.43
2022-10-14T09:39:14.428Z,5.10
2022-10-14T09:41:42.731Z,5.67
2022-10-14T09:44:13.209Z,4.93
2022-10-14T09:46:40.794Z,4.00
2022-10-14T09:49:09.077Z,4.00
2022-10-14T09:51:36.610Z,3.70
2022-10-14T09:54:04.267Z,3.60
2022-10-14T09:56:39.090Z,3.80
2022-10-14T09:59:03.725Z,3.50
2022-10-14T10:01:36.877Z,3.80
2022-10-14T10:04:26.030Z,3.50
2022-10-14T10:06:53.595Z,3.70
2022-10-14T10:09:21.137Z,3.67
2022-10-14T10:11:48.652Z,2.73
2022-10-14T10:14:21.849Z,2.60
2022-10-14T10:19:32.342Z,2.30
2022-10-14T10:24:45.849Z,2.40
2022-10-14T10:27:25.809Z,2.00
2022-10-14T10:29:54.074Z,2.10
2022-10-14T10:32:33.604Z,2.17
2022-10-14T10:35:01.193Z,2.10
2022-10-14T10:37:46.540Z,2.20
2022-10-14T10:40:22.877Z,1.90
2022-10-14T10:43:11.701Z,2.00
2022-10-14T10:46:13.141Z,2.00
2022-10-14T10:48:47.303Z,2.10
2022-10-14T10:51:14.857Z,2.30
2022-10-14T10:53:57.654Z,2.17
2022-10-14T10:56:46.032Z,2.17
2022-10-14T10:59:32.317Z,1.70
2022-10-14T11:02:33.636Z,2.33
2022-10-14T11:05:07.487Z,1.73
2022-10-14T11:08:05.308Z,2.13
2022-10-14T11:10:57.557Z,2.60
2022-10-14T11:13:45.985Z,2.00
2022-10-14T11:16:17.045Z,1.73
2022-10-14T11:18:47.425Z,0.70
2022-10-14T11:21:27.021Z,0.80
2022-10-14T11:24:25.188Z,1.10
2022-10-14T11:27:00.009Z,1.10
2022-10-14T11:29:49.093Z,0.70
2022-10-14T11:32:34.578Z,0.70
2022-10-14T11:35:05.204Z,0.60
2022-10-14T11:37:47.489Z,0.57
2022-10-14T11:40:39.537Z,0.70
2022-10-14T11:43:28.309Z,0.60
2022-10-14T11:46:01.875Z,0.50
2022-10-14T11:48:35.057Z,0.50
2022-10-14T11:51:09.041Z,0.50
2022-10-14T11:54:10.338Z,0.50
2022-10-14T11:56:56.344Z,0.50
2022-10-14T12:00:03.501Z,0.57
2022-10-14T12:03:02.279Z,0.60
2022-10-14T12:05:48.955Z,0.70
2022-10-14T12:08:16.487Z,0.50
2022-10-14T12:10:44.021Z,0.60
2022-10-14T12:13:17.345Z,0.50
2022-10-14T12:15:44.870Z,0.50
2022-10-14T12:18:13.165Z,0.37
2022-10-14T12:20:52.356Z,0.43
2022-10-14T12:23:19.901Z,0.40
2022-10-14T12:25:47.448Z,0.40
2022-10-14T12:28:15.056Z,0.40
2022-10-14T12:30:43.355Z,0.50
2022-10-14T12:33:10.917Z,0.30
2022-10-14T12:35:59.453Z,0.50
2022-10-14T12:38:26.919Z,0.40
2022-10-14T12:40:54.463Z,0.30
2022-10-14T12:43:24.814Z,0.30
2022-10-14T12:46:01.360Z,0.50
2022-10-14T12:48:32.348Z,0.20
2022-10-14T12:51:09.220Z,0.40
2022-10-14T12:53:36.801Z,0.40
2022-10-14T12:56:04.335Z,0.40
2022-10-14T12:58:31.864Z,0.50
2022-10-14T13:00:59.435Z,0.30
2022-10-14T13:03:27.357Z,0.40
2022-10-14T13:05:54.506Z,0.20
2022-10-14T13:08:22.857Z,0.40
2022-10-14T13:11:08.617Z,0.60
2022-10-14T13:13:38.863Z,0.40
2022-10-14T13:16:09.347Z,0.43
2022-10-14T13:18:43.988Z,0.50
2022-10-14T13:21:11.471Z,0.60
2022-10-14T13:23:41.917Z,0.70
2022-10-14T13:26:18.598Z,0.80
2022-10-14T13:28:48.896Z,0.60
2022-10-14T13:31:19.063Z,0.83
2022-10-14T13:33:46.647Z,0.60
2022-10-14T13:36:23.339Z,0.60
2022-10-14T13:38:53.591Z,0.50
2022-10-14T13:41:21.117Z,0.50
2022-10-14T13:43:48.652Z,0.60
2022-10-14T13:46:21.984Z,0.43
2022-10-14T13:48:49.521Z,0.50
2022-10-14T13:51:24.514Z,0.83
2022-10-14T13:53:59.387Z,0.73
2022-10-14T13:56:29.581Z,0.67
2022-10-14T13:58:57.108Z,0.73
2022-10-14T14:01:30.410Z,0.80
2022-10-14T14:03:57.916Z,0.70
2022-10-14T14:06:25.451Z,0.53
2022-10-14T14:08:55.959Z,1.17
2022-10-14T14:11:30.341Z,1.20
2022-10-14T14:14:01.590Z,0.90
2022-10-14T14:16:40.181Z,0.90
2022-10-14T14:19:10.031Z,3.35
2022-10-14T14:21:36.094Z,2.10
2022-10-14T14:24:04.395Z,1.10
2022-10-14T14:26:34.745Z,1.20
2022-10-14T14:29:05.007Z,1.70
2022-10-14T14:32:01.396Z,1.50
2022-10-14T14:34:00.887Z,1.00
2022-10-14T14:36:50.174Z,0.73
2022-10-14T14:38:55.953Z,1.00
2022-10-14T14:41:24.293Z,0.90
2022-10-14T14:44:13.743Z,0.70
2022-10-14T14:46:25.151Z,0.90
2022-10-14T14:48:54.413Z,0.90
2022-10-14T14:51:20.245Z,0.70
2022-10-14T14:53:53.676Z,1.10
2022-10-14T14:56:33.195Z,1.00
2022-10-14T14:59:00.739Z,1.05
2022-10-14T15:01:28.253Z,0.90
2022-10-14T15:04:12.874Z,0.90
2022-10-14T15:06:24.131Z,1.00
2022-10-14T15:08:51.666Z,1.13
2022-10-14T15:11:19.243Z,0.70
2022-10-14T15:13:52.768Z,0.90
2022-10-14T15:16:38.662Z,1.00
2022-10-14T15:19:15.065Z,1.20
2022-10-14T15:21:43.447Z,1.58
2022-10-14T15:24:16.919Z,1.60
2022-10-14T15:26:44.445Z,1.70
2022-10-14T15:29:14.978Z,1.58
2022-10-14T15:31:45.125Z,1.77
2022-10-14T15:34:18.420Z,1.80
2022-10-14T15:36:46.016Z,1.50
2022-10-14T15:39:13.550Z,2.20
2022-10-14T15:41:41.084Z,2.80
2022-10-14T15:44:08.638Z,1.65
2022-10-14T15:46:54.516Z,1.30
2022-10-14T15:49:28.007Z,1.33
2022-10-14T15:51:55.543Z,1.50
2022-10-14T15:54:23.067Z,1.13
2022-10-14T15:56:50.680Z,1.27
2022-10-14T15:59:18.187Z,1.47
2022-10-14T16:01:45.750Z,1.10
2022-10-14T16:04:13.276Z,0.90
2022-10-14T16:06:40.810Z,0.90
2022-10-14T16:09:08.344Z,1.00
2022-10-14T16:11:36.697Z,0.80
2022-10-14T16:14:04.212Z,0.97
2022-10-14T16:16:34.759Z,1.20
2022-10-14T16:19:05.238Z,0.90
2022-10-14T16:21:33.534Z,2.40
2022-10-14T16:24:01.130Z,1.70
2022-10-14T16:26:29.413Z,1.70
2022-10-14T16:28:56.945Z,1.40
2022-10-14T16:31:24.473Z,1.53
2022-10-14T16:33:52.811Z,1.30
2022-10-14T16:36:20.347Z,1.30
2022-10-14T16:38:47.889Z,1.10
2022-10-14T16:41:15.455Z,1.00
2022-10-14T16:43:42.979Z,1.10
2022-10-14T16:46:13.200Z,1.47
2022-10-14T16:48:38.895Z,1.10
2022-10-14T16:51:06.460Z,1.10
2022-10-14T16:53:42.658Z,0.90
2022-10-14T16:56:34.022Z,1.40
2022-10-14T16:59:01.548Z,1.10
2022-10-14T17:01:29.154Z,1.20
2022-10-14T17:03:57.403Z,1.30
2022-10-14T17:06:24.937Z,0.90
2022-10-14T17:08:52.474Z,0.97
2022-10-14T17:11:20.047Z,1.40
2022-10-14T17:13:47.581Z,1.37
2022-10-14T17:16:15.867Z,1.13
2022-10-14T17:18:43.465Z,1.40
2022-10-14T17:21:10.966Z,1.10
2022-10-14T17:23:39.256Z,0.93
2022-10-14T17:26:07.601Z,1.30
2022-10-14T17:28:35.185Z,1.17
2022-10-14T17:31:02.678Z,1.45
2022-10-14T17:33:30.242Z,1.70
2022-10-14T17:35:57.776Z,1.97
2022-10-14T17:38:25.312Z,2.57
2022-10-14T17:40:53.644Z,1.77
2022-10-14T17:43:21.178Z,0.90
2022-10-14T17:45:48.704Z,0.63
2022-10-14T17:48:17.951Z,0.97
2022-10-14T17:50:48.194Z,1.00
2022-10-14T17:53:15.738Z,1.00
2022-10-14T17:55:43.295Z,1.43
2022-10-14T17:58:10.818Z,1.20
2022-10-14T18:00:39.120Z,1.20
2022-10-14T18:03:06.744Z,1.77
2022-10-14T18:05:35.050Z,1.37
2022-10-14T18:08:02.572Z,1.20
2022-10-14T18:10:30.903Z,2.23
2022-10-14T18:12:58.439Z,1.43
2022-10-14T18:15:25.983Z,1.20
2022-10-14T18:17:57.133Z,0.90
2022-10-14T18:20:24.657Z,1.27
2022-10-14T18:22:52.185Z,1.37
2022-10-14T18:25:19.766Z,1.80
2022-10-14T18:27:47.300Z,1.40
2022-10-14T18:30:14.844Z,1.47
2022-10-14T18:32:42.420Z,1.60
2022-10-14T18:35:10.180Z,1.40
2022-10-14T18:37:37.725Z,2.00
2022-10-14T18:40:05.438Z,1.90
2022-10-14T18:42:32.988Z,1.90
2022-10-14T18:45:00.525Z,2.60
2022-10-14T18:47:28.102Z,1.90
2022-10-14T18:49:55.651Z,2.10
2022-10-14T18:52:23.375Z,2.27
2022-10-14T18:54:50.743Z,2.10
2022-10-14T18:57:18.281Z,2.50
2022-10-14T18:59:46.585Z,3.00
2022-10-14T19:02:14.174Z,2.73
2022-10-14T19:04:41.700Z,3.00
2022-10-14T19:07:09.226Z,2.83
2022-10-14T19:09:37.560Z,3.20
2022-10-14T19:12:05.131Z,3.17
2022-10-14T19:14:32.686Z,3.60
2022-10-14T19:17:00.257Z,4.45
2022-10-14T19:19:27.801Z,3.90
2022-10-14T19:21:55.309Z,3.60
2022-10-14T19:24:22.885Z,3.63
2022-10-14T19:26:50.480Z,3.93
2022-10-14T19:29:18.730Z,3.77
2022-10-14T19:31:46.322Z,3.77
2022-10-14T19:34:13.830Z,3.27
2022-10-14T19:36:41.354Z,3.50
2022-10-14T19:39:08.939Z,3.37
2022-10-14T19:41:36.475Z,3.63
2022-10-14T19:44:03.998Z,3.37
2022-10-14T19:46:31.576Z,4.03
2022-10-14T19:48:59.092Z,4.03
2022-10-14T19:51:26.614Z,4.37
2022-10-14T19:53:54.946Z,4.03
2022-10-14T19:56:22.489Z,4.50
2022-10-14T19:58:55.756Z,4.07
2022-10-14T20:01:24.174Z,3.77
2022-10-14T20:03:51.637Z,4.10
2022-10-14T20:06:19.166Z,3.97
2022-10-14T20:08:46.751Z,4.03
2022-10-14T20:11:14.294Z,4.47
2022-10-14T20:13:41.821Z,3.67
2022-10-14T20:16:10.173Z,3.40
2022-10-14T20:18:37.697Z,3.20
2022-10-14T20:21:05.222Z,4.45
2022-10-14T20:23:33.593Z,3.60
2022-10-14T20:26:01.885Z,4.20
2022-10-14T20:28:29.502Z,3.97
2022-10-14T20:30:56.985Z,4.17
2022-10-14T20:33:25.277Z,4.00
2022-10-14T20:35:59.049Z,4.77
2022-10-14T20:38:26.639Z,4.97
2022-10-14T20:40:54.165Z,4.53
2022-10-14T20:43:21.699Z,3.90
2022-10-14T20:45:49.272Z,5.60
2022-10-14T20:48:16.807Z,4.63
2022-10-14T20:50:44.342Z,5.40
2022-10-14T20:53:11.926Z,5.37
2022-10-14T20:55:39.442Z,5.50
2022-10-14T20:58:07.757Z,6.57
2022-10-14T21:00:35.320Z,7.10
2022-10-14T21:03:02.893Z,6.67
2022-10-14T21:05:30.378Z,6.10
2022-10-14T21:07:58.082Z,6.20
2022-10-14T21:10:25.625Z,6.57
2022-10-14T21:12:53.917Z,6.37
2022-10-14T21:15:21.504Z,6.03
2022-10-14T21:17:49.017Z,5.77
2022-10-14T21:20:17.320Z,5.83
2022-10-14T21:22:44.903Z,6.40
2022-10-14T21:25:12.440Z,6.77
2022-10-14T21:27:39.969Z,7.93
2022-10-14T21:30:08.471Z,5.73
2022-10-14T21:32:35.950Z,5.70
2022-10-14T21:35:03.473Z,4.80
2022-10-14T21:37:31.057Z,6.80
2022-10-14T21:39:58.582Z,5.87
2022-10-14T21:42:26.874Z,5.53
2022-10-14T21:44:54.445Z,5.03
2022-10-14T21:47:21.964Z,5.03
2022-10-14T21:49:50.257Z,5.07
2022-10-14T21:52:18.591Z,4.70
2022-10-14T21:54:46.133Z,4.67
2022-10-14T21:57:13.650Z,4.00
2022-10-14T21:59:42.010Z,4.37
2022-10-14T22:02:10.303Z,5.23
2022-10-14T22:04:38.634Z,4.47
2022-10-14T22:07:06.202Z,4.73
2022-10-14T22:09:33.734Z,4.30
2022-10-14T22:12:01.280Z,4.40
2022-10-14T22:14:28.855Z,4.40
2022-10-14T22:16:56.388Z,4.70
2022-10-14T22:19:23.923Z,3.70
2022-10-14T22:21:52.266Z,4.77
2022-10-14T22:24:19.790Z,5.03
2022-10-14T22:26:47.324Z,5.90
2022-10-14T22:29:15.662Z,4.53
2022-10-14T22:31:43.194Z,4.80
2022-10-14T22:34:10.717Z,5.85
2022-10-14T22:36:39.069Z,5.10
2022-10-14T22:39:06.613Z,4.50
2022-10-14T22:41:35.761Z,5.80
2022-10-14T22:44:01.724Z,4.40
2022-10-14T22:46:29.258Z,4.67
2022-10-14T22:48:56.798Z,4.80
2022-10-14T22:53:52.629Z,4.77
2022-10-14T22:56:20.925Z,4.17
2022-10-14T22:58:48.496Z,4.83
2022-10-14T23:01:16.031Z,4.50
2022-10-14T23:03:43.575Z,5.00
2022-10-14T23:06:11.908Z,5.57
2022-10-14T23:08:39.445Z,6.20
2022-10-14T23:11:06.979Z,5.87
2022-10-14T23:13:35.289Z,5.90
2022-10-14T23:16:02.814Z,5.63
2022-10-14T23:18:30.389Z,6.40
2022-10-14T23:20:57.904Z,5.83
2022-10-14T23:23:25.449Z,8.48
2022-10-14T23:25:52.985Z,8.00
2022-10-14T23:28:20.622Z,8.63
2022-10-14T23:30:48.085Z,7.33
2022-10-14T23:33:15.607Z,7.53
2022-10-14T23:35:43.940Z,7.67
2022-10-14T23:38:14.292Z,8.30
2022-10-14T23:40:41.836Z,7.77
2022-10-14T23:43:09.715Z,10.35
2022-10-14T23:45:37.240Z,8.50
2022-10-14T23:48:04.774Z,8.77
2022-10-14T23:50:33.107Z,9.97
2022-10-14T23:53:00.660Z,10.17
2022-10-14T23:55:28.190Z,9.47
2022-10-14T23:57:55.734Z,8.13
